Norphlet, Arkansas
Current Conditions -  °F | °C
As of 4:53 PM on Tuesday 21 Oct 2014 (Local Time) from KELD Reporting Station
Clear Clear  
Wind Chill: 78°   Ceiling: Unl
Heat Index: 79°   Visibility: 10mi
Dew Point: 58°   Wind: 7mph
Humidity: 50%   Direction: 10°N
Pressure: 30.03"   Gusts: NA
Location:  33.32°N, 92.66°W
Report Text: KELD 212153Z AUTO 01006KT 10SM CLR 26/14 A3003 RMK AO2 SLP167 T02560144
Loading
Personal Weather Stations






























Interactive Weather Map
Tropical Storm Tracking
New forecast layout! Learn more

10-Day Weather Forecast

Advertisements
Track Severe Weather on mobile